createdAt,value
2023-01-18T00:00:08.602Z,6.23
2023-01-18T00:00:42.053Z,6.17
2023-01-18T00:01:13.991Z,6.21
2023-01-18T00:01:46.098Z,6.23
2023-01-18T00:02:18.055Z,6.20
2023-01-18T00:02:49.889Z,6.23
2023-01-18T00:03:21.770Z,6.23
2023-01-18T00:03:53.661Z,6.22
2023-01-18T00:04:25.552Z,6.31
2023-01-18T00:04:57.587Z,6.31
2023-01-18T00:05:29.707Z,6.25
2023-01-18T00:06:03.146Z,6.28
2023-01-18T00:06:35.007Z,6.22
2023-01-18T00:07:06.869Z,6.22
2023-01-18T00:07:38.736Z,6.26
2023-01-18T00:08:13.150Z,6.30
2023-01-18T00:08:44.997Z,6.28
2023-01-18T00:09:16.887Z,6.35
2023-01-18T00:09:48.741Z,6.38
2023-01-18T00:10:22.515Z,6.32
2023-01-18T00:10:54.411Z,6.34
2023-01-18T00:11:26.580Z,6.34
2023-01-18T00:11:58.458Z,6.42
2023-01-18T00:12:30.303Z,6.32
2023-01-18T00:13:02.207Z,6.29
2023-01-18T00:13:34.601Z,6.31
2023-01-18T00:14:07.248Z,6.26
2023-01-18T00:14:39.118Z,6.23
2023-01-18T00:15:11.498Z,6.29
2023-01-18T00:15:43.499Z,6.20
2023-01-18T00:16:18.148Z,6.12
2023-01-18T00:16:50.315Z,6.07
2023-01-18T00:17:22.163Z,6.11
2023-01-18T00:17:54.061Z,6.13
2023-01-18T00:18:25.893Z,6.16
2023-01-18T00:18:59.212Z,6.19
2023-01-18T00:19:31.295Z,6.18
2023-01-18T00:20:03.697Z,6.16
2023-01-18T00:20:35.768Z,6.17
2023-01-18T00:21:10.214Z,6.21
2023-01-18T00:21:42.178Z,6.22
2023-01-18T00:22:14.371Z,6.17
2023-01-18T00:22:46.389Z,6.09
2023-01-18T00:23:18.234Z,6.01
2023-01-18T00:23:50.832Z,5.87
2023-01-18T00:24:22.895Z,5.79
2023-01-18T00:24:54.751Z,5.95
2023-01-18T00:25:26.613Z,6.02
2023-01-18T00:26:09.104Z,6.01
2023-01-18T00:26:42.959Z,5.91
2023-01-18T00:27:15.293Z,5.91
2023-01-18T00:27:52.642Z,5.97
2023-01-18T00:28:24.587Z,6.02
2023-01-18T00:28:57.409Z,6.05
2023-01-18T00:29:31.183Z,6.00
2023-01-18T00:30:05.382Z,6.00
2023-01-18T00:30:37.413Z,6.05
2023-01-18T00:31:15.249Z,6.04
2023-01-18T00:31:47.293Z,6.04
2023-01-18T00:32:19.492Z,5.89
2023-01-18T00:32:59.170Z,5.81
2023-01-18T00:33:31.276Z,5.84
2023-01-18T00:34:03.435Z,5.81
2023-01-18T00:34:36.332Z,5.82
2023-01-18T00:35:08.400Z,5.82
2023-01-18T00:35:40.307Z,5.93
2023-01-18T00:36:13.280Z,5.98
2023-01-18T00:36:45.162Z,6.04
2023-01-18T00:37:17.381Z,6.09
2023-01-18T00:37:50.249Z,6.13
2023-01-18T00:38:22.144Z,6.20
2023-01-18T00:38:54.216Z,6.14
2023-01-18T00:39:26.153Z,6.13
2023-01-18T00:39:58.021Z,6.15
2023-01-18T00:40:30.317Z,6.22
2023-01-18T00:41:02.360Z,6.25
2023-01-18T00:41:34.297Z,6.22
2023-01-18T00:42:25.221Z,6.19
2023-01-18T00:43:15.871Z,6.06
2023-01-18T00:43:48.084Z,6.11
2023-01-18T00:44:19.929Z,6.15
2023-01-18T00:44:51.850Z,6.09
2023-01-18T00:45:23.812Z,6.09
2023-01-18T00:45:55.723Z,6.09
2023-01-18T00:46:27.759Z,6.08
2023-01-18T00:46:59.633Z,6.05
2023-01-18T00:47:31.567Z,6.10
2023-01-18T00:48:03.857Z,6.13
2023-01-18T00:48:36.184Z,6.14
2023-01-18T00:49:08.248Z,6.04
2023-01-18T00:49:40.115Z,6.11
2023-01-18T00:50:11.986Z,6.16
2023-01-18T00:50:44.459Z,6.12
2023-01-18T00:51:20.263Z,6.05
2023-01-18T00:51:52.591Z,6.05
2023-01-18T00:52:24.434Z,5.93
2023-01-18T00:52:58.788Z,5.88
2023-01-18T00:53:31.264Z,5.92
2023-01-18T00:54:03.160Z,5.84
2023-01-18T00:54:35.094Z,5.78
2023-01-18T00:55:07.762Z,5.66
2023-01-18T00:55:39.680Z,5.61
2023-01-18T00:56:15.024Z,5.60
2023-01-18T00:56:46.873Z,5.78
2023-01-18T00:57:18.800Z,5.85
2023-01-18T00:57:50.838Z,5.97
2023-01-18T00:58:22.837Z,5.97
2023-01-18T00:58:55.055Z,5.92
2023-01-18T00:59:26.947Z,5.95
2023-01-18T00:59:58.815Z,5.96
2023-01-18T01:00:30.809Z,6.06
2023-01-18T01:01:03.282Z,6.01
2023-01-18T01:01:35.816Z,5.95
2023-01-18T01:02:07.853Z,5.99
2023-01-18T01:02:40.854Z,5.95
2023-01-18T01:03:15.577Z,6.08
2023-01-18T01:04:06.228Z,6.06
2023-01-18T01:05:04.426Z,5.95
2023-01-18T01:05:57.296Z,5.99
2023-01-18T01:06:45.532Z,5.70
2023-01-18T01:07:17.677Z,5.74
2023-01-18T01:07:49.566Z,5.82
2023-01-18T01:08:23.568Z,5.95
2023-01-18T01:08:55.399Z,6.01
2023-01-18T01:09:29.927Z,6.05
2023-01-18T01:10:09.033Z,6.05
2023-01-18T01:10:40.909Z,5.99
2023-01-18T01:11:13.050Z,5.91
2023-01-18T01:12:05.391Z,5.91
2023-01-18T01:12:56.442Z,5.93
2023-01-18T01:13:46.727Z,5.98
2023-01-18T01:14:37.058Z,5.95
2023-01-18T01:15:29.200Z,5.93
2023-01-18T01:16:27.234Z,6.00
2023-01-18T01:17:18.045Z,6.10
2023-01-18T01:18:08.539Z,6.06
2023-01-18T01:18:58.935Z,6.03
2023-01-18T01:19:49.136Z,5.87
2023-01-18T01:20:41.823Z,6.04
2023-01-18T01:21:32.351Z,5.95
2023-01-18T01:22:22.783Z,5.70
2023-01-18T01:23:13.174Z,5.66
2023-01-18T01:24:03.415Z,5.83
2023-01-18T01:24:54.531Z,5.73
2023-01-18T01:25:45.537Z,5.69
2023-01-18T01:26:17.371Z,5.53
2023-01-18T01:26:49.287Z,5.53
2023-01-18T01:27:21.174Z,5.56
2023-01-18T01:27:53.467Z,5.62
2023-01-18T01:28:25.406Z,5.60
2023-01-18T01:28:57.262Z,5.47
2023-01-18T01:29:29.106Z,5.45
2023-01-18T01:30:00.937Z,5.33
2023-01-18T01:30:33.152Z,5.27
2023-01-18T01:31:07.931Z,5.38
2023-01-18T01:31:40.600Z,5.44
2023-01-18T01:32:12.537Z,5.47
2023-01-18T01:32:44.778Z,5.52
2023-01-18T01:33:18.413Z,5.57
2023-01-18T01:33:51.980Z,5.57
2023-01-18T01:34:24.194Z,5.61
2023-01-18T01:34:56.023Z,5.58
2023-01-18T01:35:27.867Z,5.54
2023-01-18T01:36:03.470Z,5.57
2023-01-18T01:36:35.402Z,5.65
2023-01-18T01:37:07.297Z,5.68
2023-01-18T01:37:39.260Z,5.74
2023-01-18T01:38:11.200Z,5.63
2023-01-18T01:38:43.801Z,5.47
2023-01-18T01:39:15.852Z,5.50
2023-01-18T01:39:47.739Z,5.46
2023-01-18T01:40:19.576Z,5.51
2023-01-18T01:41:02.835Z,5.42
2023-01-18T01:41:35.474Z,5.42
2023-01-18T01:42:11.644Z,5.45
2023-01-18T01:42:43.497Z,5.34
2023-01-18T01:43:15.349Z,5.37
2023-01-18T01:43:47.181Z,5.39
2023-01-18T01:44:24.443Z,5.43
2023-01-18T01:44:56.384Z,5.38
2023-01-18T01:45:31.565Z,5.47
2023-01-18T01:46:04.682Z,5.55
2023-01-18T01:46:39.331Z,5.36
2023-01-18T01:47:26.085Z,5.18
2023-01-18T01:47:58.533Z,5.37
2023-01-18T01:48:30.764Z,5.38
2023-01-18T01:49:09.472Z,5.47
2023-01-18T01:49:50.405Z,5.52
2023-01-18T01:50:35.562Z,5.60
2023-01-18T01:51:07.752Z,5.62
2023-01-18T01:52:00.132Z,5.66
2023-01-18T01:52:36.083Z,5.68
2023-01-18T01:53:10.962Z,5.67
2023-01-18T01:53:42.923Z,5.77
2023-01-18T01:54:22.886Z,5.78
2023-01-18T01:55:04.857Z,5.71
2023-01-18T01:55:39.420Z,5.78
2023-01-18T01:56:12.252Z,5.78
2023-01-18T01:56:48.450Z,5.74
2023-01-18T01:57:30.930Z,5.75
2023-01-18T01:58:18.789Z,5.83
2023-01-18T01:58:54.164Z,5.86
2023-01-18T01:59:26.635Z,5.78
2023-01-18T02:00:07.892Z,5.74
2023-01-18T02:00:44.568Z,5.71
2023-01-18T02:01:17.855Z,5.66
2023-01-18T02:01:49.969Z,5.74
2023-01-18T02:02:22.154Z,5.76
2023-01-18T02:03:02.945Z,5.79
2023-01-18T02:03:36.985Z,5.83
2023-01-18T02:04:09.532Z,5.88
2023-01-18T02:04:44.315Z,5.88
2023-01-18T02:05:17.774Z,5.92
2023-01-18T02:05:59.181Z,5.91
2023-01-18T02:06:38.101Z,5.92
2023-01-18T02:07:11.458Z,5.97
2023-01-18T02:07:44.104Z,5.96
2023-01-18T02:08:22.537Z,6.00
2023-01-18T02:08:54.593Z,6.04
2023-01-18T02:09:27.000Z,6.03
2023-01-18T02:10:00.727Z,6.03
2023-01-18T02:10:32.848Z,5.96
2023-01-18T02:11:04.844Z,5.94
2023-01-18T02:11:37.571Z,5.89
2023-01-18T02:12:09.472Z,5.83
2023-01-18T02:12:44.697Z,5.86
2023-01-18T02:13:17.325Z,5.98
2023-01-18T02:13:49.330Z,6.00
2023-01-18T02:14:25.006Z,6.08
2023-01-18T02:14:58.842Z,6.02
2023-01-18T02:15:40.239Z,6.04
2023-01-18T02:16:35.344Z,6.00
2023-01-18T02:17:28.287Z,6.05
2023-01-18T02:18:19.341Z,6.06
2023-01-18T02:19:43.833Z,5.90
2023-01-18T02:20:34.364Z,5.94
2023-01-18T02:21:10.968Z,5.89
2023-01-18T02:21:46.199Z,5.92
2023-01-18T02:22:27.100Z,5.99
2023-01-18T02:23:49.106Z,6.05
2023-01-18T02:24:45.359Z,6.02
2023-01-18T02:25:46.462Z,6.00
2023-01-18T02:26:49.649Z,5.90
2023-01-18T02:27:54.498Z,5.84
2023-01-18T02:28:34.148Z,5.84
2023-01-18T02:29:32.176Z,5.89
2023-01-18T02:30:08.516Z,5.77
2023-01-18T02:30:51.051Z,5.85
2023-01-18T02:31:28.801Z,5.86
2023-01-18T02:32:15.924Z,5.82
2023-01-18T02:32:54.085Z,5.85
2023-01-18T02:33:39.974Z,5.84
2023-01-18T02:34:38.020Z,5.94
2023-01-18T02:35:15.326Z,6.02
2023-01-18T02:35:56.849Z,6.00
2023-01-18T02:36:42.206Z,6.05
2023-01-18T02:37:24.385Z,6.03
2023-01-18T02:38:09.947Z,6.03
2023-01-18T02:38:45.391Z,6.14
2023-01-18T02:39:23.335Z,6.06
2023-01-18T02:40:22.742Z,5.96
2023-01-18T02:41:02.299Z,6.09
2023-01-18T02:42:03.179Z,6.12
2023-01-18T02:42:57.624Z,6.14
2023-01-18T02:43:49.849Z,6.03
2023-01-18T02:44:48.453Z,6.04
2023-01-18T02:46:02.239Z,6.13
2023-01-18T02:46:34.465Z,6.23
2023-01-18T02:47:09.018Z,6.31
2023-01-18T02:47:43.989Z,6.29
2023-01-18T02:48:16.951Z,6.34
2023-01-18T02:48:49.477Z,6.39
2023-01-18T02:49:27.267Z,6.34
2023-01-18T02:49:59.434Z,6.27
2023-01-18T02:50:31.397Z,6.24
2023-01-18T02:51:03.842Z,6.28
2023-01-18T02:51:36.401Z,6.37
2023-01-18T02:52:28.532Z,6.35
2023-01-18T02:53:00.506Z,6.22
2023-01-18T02:53:37.255Z,6.18
2023-01-18T02:54:11.751Z,6.21
2023-01-18T02:54:43.654Z,6.31
2023-01-18T02:55:39.336Z,6.24
2023-01-18T02:56:40.006Z,6.23
2023-01-18T02:57:15.927Z,6.25
2023-01-18T02:57:48.333Z,6.31
2023-01-18T02:58:53.768Z,6.36
2023-01-18T02:59:36.755Z,6.37
2023-01-18T03:00:13.165Z,6.37
2023-01-18T03:00:51.133Z,6.25
2023-01-18T03:01:38.882Z,6.22
2023-01-18T03:02:16.569Z,6.28
2023-01-18T03:02:50.186Z,6.41
2023-01-18T03:03:24.541Z,6.47
2023-01-18T03:04:04.862Z,6.36
2023-01-18T03:04:55.145Z,6.31
2023-01-18T03:05:30.093Z,6.40
2023-01-18T03:06:06.901Z,6.45
2023-01-18T03:06:42.209Z,6.47
2023-01-18T03:07:21.447Z,6.50
2023-01-18T03:08:09.528Z,6.58
2023-01-18T03:08:48.119Z,6.61
2023-01-18T03:09:21.453Z,6.61
2023-01-18T03:09:54.319Z,6.57
2023-01-18T03:10:31.259Z,6.52
2023-01-18T03:11:14.201Z,6.54
2023-01-18T03:11:56.495Z,6.54
2023-01-18T03:12:52.900Z,6.58
2023-01-18T03:13:31.392Z,6.55
2023-01-18T03:14:18.167Z,6.54
2023-01-18T03:15:17.512Z,6.59
2023-01-18T03:16:06.078Z,6.58
2023-01-18T03:17:08.439Z,6.60
2023-01-18T03:17:48.385Z,6.60
2023-01-18T03:19:00.256Z,6.64
2023-01-18T03:19:55.274Z,6.62
2023-01-18T03:20:32.783Z,6.68
2023-01-18T03:21:08.402Z,6.62
2023-01-18T03:21:45.714Z,6.61
2023-01-18T03:22:17.946Z,6.54
2023-01-18T03:23:10.350Z,6.58
2023-01-18T03:23:43.067Z,6.55
2023-01-18T03:24:18.054Z,6.49
2023-01-18T03:24:49.978Z,6.57
2023-01-18T03:25:28.485Z,6.55
2023-01-18T03:26:02.265Z,6.49
2023-01-18T03:26:40.618Z,6.47
2023-01-18T03:27:32.757Z,6.55
2023-01-18T03:28:46.352Z,6.54
2023-01-18T03:29:37.936Z,6.52
2023-01-18T03:30:29.984Z,6.56
2023-01-18T03:31:26.746Z,6.59
2023-01-18T03:32:19.587Z,6.60
2023-01-18T03:33:10.064Z,6.51
2023-01-18T03:33:48.053Z,6.57
2023-01-18T03:34:32.318Z,6.60
2023-01-18T03:35:13.508Z,6.65
2023-01-18T03:35:45.630Z,6.61
2023-01-18T03:36:27.821Z,6.57
2023-01-18T03:37:10.543Z,6.53
2023-01-18T03:37:44.782Z,6.59
2023-01-18T03:38:17.737Z,6.56
2023-01-18T03:38:54.914Z,6.55
2023-01-18T03:39:35.997Z,6.57
2023-01-18T03:40:13.085Z,6.63
2023-01-18T03:40:45.186Z,6.62
2023-01-18T03:41:18.678Z,6.58
2023-01-18T03:41:54.051Z,6.67
2023-01-18T03:42:34.617Z,6.69
2023-01-18T03:43:14.883Z,6.68
2023-01-18T03:43:50.051Z,6.55
2023-01-18T03:44:32.137Z,6.56
2023-01-18T03:45:04.055Z,6.63
2023-01-18T03:45:49.436Z,6.69
2023-01-18T03:46:23.728Z,6.68
2023-01-18T03:46:56.682Z,6.71
2023-01-18T03:47:29.248Z,6.65
2023-01-18T03:48:02.381Z,6.62
2023-01-18T03:48:36.660Z,6.57
2023-01-18T03:49:08.491Z,6.59
2023-01-18T03:49:40.408Z,6.50
2023-01-18T03:50:12.321Z,6.52
2023-01-18T03:51:00.808Z,6.59
2023-01-18T03:51:47.431Z,6.53
2023-01-18T03:52:22.046Z,6.52
2023-01-18T03:52:59.368Z,6.52
2023-01-18T03:53:40.574Z,6.57
2023-01-18T03:54:25.564Z,6.57
2023-01-18T03:55:09.756Z,6.59
2023-01-18T03:55:48.985Z,6.63
2023-01-18T03:56:52.833Z,6.64
2023-01-18T03:57:27.849Z,6.60
2023-01-18T03:58:05.660Z,6.61
2023-01-18T03:58:37.595Z,6.68
2023-01-18T03:59:09.967Z,6.78
2023-01-18T03:59:41.938Z,6.70
2023-01-18T04:00:14.674Z,6.65
2023-01-18T04:00:46.932Z,6.69
2023-01-18T04:01:19.679Z,6.68
2023-01-18T04:01:51.882Z,6.71
2023-01-18T04:02:24.227Z,6.67
2023-01-18T04:02:56.585Z,6.79
2023-01-18T04:03:28.777Z,6.80
2023-01-18T04:04:00.708Z,6.71
2023-01-18T04:04:32.881Z,6.72
2023-01-18T04:05:06.697Z,6.71
2023-01-18T04:05:38.944Z,6.71
2023-01-18T04:06:11.092Z,6.68
2023-01-18T04:06:43.018Z,6.71
2023-01-18T04:07:14.948Z,6.69
2023-01-18T04:07:47.468Z,6.68
2023-01-18T04:08:21.975Z,6.63
2023-01-18T04:08:53.903Z,6.58
2023-01-18T04:09:26.582Z,6.61
2023-01-18T04:09:59.573Z,6.66
2023-01-18T04:10:31.426Z,6.67
2023-01-18T04:11:03.337Z,6.62
2023-01-18T04:11:35.544Z,6.67
2023-01-18T04:12:07.597Z,6.76
2023-01-18T04:12:39.843Z,6.74
2023-01-18T04:13:11.689Z,6.77
2023-01-18T04:13:43.813Z,7.38
2023-01-18T04:14:15.704Z,7.36
2023-01-18T04:14:47.623Z,7.27
2023-01-18T04:15:20.325Z,7.27
2023-01-18T04:15:52.176Z,7.24
2023-01-18T04:16:24.143Z,7.10
2023-01-18T04:16:56.468Z,7.07
2023-01-18T04:17:28.376Z,7.07
2023-01-18T04:18:00.223Z,7.02
2023-01-18T04:18:32.131Z,6.93
2023-01-18T04:19:04.826Z,6.89
2023-01-18T04:19:36.665Z,6.90
2023-01-18T04:20:09.310Z,6.93
2023-01-18T04:20:41.568Z,7.28
2023-01-18T04:21:13.432Z,7.45
2023-01-18T04:21:45.309Z,7.45
2023-01-18T04:22:17.534Z,7.39
2023-01-18T04:22:53.799Z,7.36
2023-01-18T04:23:25.712Z,7.29
2023-01-18T04:23:57.552Z,7.30
2023-01-18T04:24:29.554Z,7.17
2023-01-18T04:25:01.732Z,7.10
2023-01-18T04:25:33.686Z,6.98
2023-01-18T04:26:05.698Z,7.02
2023-01-18T04:26:38.551Z,7.01
2023-01-18T04:27:12.384Z,7.08
2023-01-18T04:27:44.560Z,6.98
2023-01-18T04:28:17.406Z,6.95
2023-01-18T04:28:49.264Z,6.97
2023-01-18T04:29:21.103Z,6.91
2023-01-18T04:29:53.872Z,6.90
2023-01-18T04:30:25.721Z,6.86
2023-01-18T04:30:57.631Z,6.86
2023-01-18T04:31:30.049Z,6.90
2023-01-18T04:32:02.311Z,6.88
2023-01-18T04:32:34.645Z,6.82
2023-01-18T04:33:06.827Z,6.82
2023-01-18T04:33:38.690Z,6.71
2023-01-18T04:34:10.560Z,6.73
2023-01-18T04:34:42.506Z,6.74
2023-01-18T04:35:14.435Z,6.69
2023-01-18T04:35:47.394Z,6.67
2023-01-18T04:36:20.310Z,6.70
2023-01-18T04:36:53.585Z,6.71
2023-01-18T04:37:32.196Z,6.74
2023-01-18T04:38:04.265Z,6.74
2023-01-18T04:38:36.423Z,6.72
2023-01-18T04:39:13.163Z,6.74
2023-01-18T04:39:46.796Z,6.77
2023-01-18T04:40:18.713Z,6.79
2023-01-18T04:40:50.869Z,6.78
2023-01-18T04:41:23.350Z,6.75
2023-01-18T04:41:57.176Z,6.78
2023-01-18T04:42:30.476Z,6.77
2023-01-18T04:43:02.345Z,6.77
2023-01-18T04:43:34.207Z,6.74
2023-01-18T04:44:06.454Z,6.78
2023-01-18T04:44:38.393Z,6.77
2023-01-18T04:45:14.084Z,6.75
2023-01-18T04:45:55.957Z,6.77
2023-01-18T04:46:27.818Z,6.84
2023-01-18T04:46:59.804Z,6.80
2023-01-18T04:47:31.648Z,6.79
2023-01-18T04:48:03.798Z,6.77
2023-01-18T04:48:35.704Z,6.78
2023-01-18T04:49:12.224Z,6.79
2023-01-18T04:49:44.168Z,6.77
2023-01-18T04:50:16.274Z,6.76
2023-01-18T04:50:48.541Z,6.76
2023-01-18T04:51:20.764Z,6.77
2023-01-18T04:51:52.590Z,6.71
2023-01-18T04:52:26.746Z,6.70
2023-01-18T04:52:59.199Z,6.74
2023-01-18T04:53:31.255Z,6.84
2023-01-18T04:54:03.162Z,6.87
2023-01-18T04:54:35.445Z,6.80
2023-01-18T04:55:08.023Z,6.86
2023-01-18T04:55:39.857Z,6.86
2023-01-18T04:56:12.229Z,6.81
2023-01-18T04:56:44.158Z,6.80
2023-01-18T04:57:16.131Z,6.82
2023-01-18T04:57:56.773Z,6.77
2023-01-18T04:58:28.629Z,6.70
2023-01-18T04:59:01.036Z,6.75
2023-01-18T04:59:32.896Z,6.79
2023-01-18T05:00:08.455Z,6.76
2023-01-18T05:00:40.956Z,6.77
2023-01-18T05:01:16.658Z,6.79
2023-01-18T05:01:48.670Z,6.80
2023-01-18T05:02:20.777Z,6.83
2023-01-18T05:02:52.709Z,6.83
2023-01-18T05:03:24.620Z,6.80
2023-01-18T05:03:56.838Z,6.77
2023-01-18T05:04:28.729Z,6.78
2023-01-18T05:05:00.625Z,6.77
2023-01-18T05:05:33.060Z,6.74
2023-01-18T05:06:07.132Z,6.75
2023-01-18T05:06:38.973Z,6.71
2023-01-18T05:07:11.598Z,6.63
2023-01-18T05:07:43.484Z,6.59
2023-01-18T05:08:15.351Z,6.63
2023-01-18T05:08:47.495Z,6.65
2023-01-18T05:09:20.105Z,6.65
2023-01-18T05:09:52.215Z,6.65
2023-01-18T05:10:24.222Z,6.65
2023-01-18T05:11:04.420Z,6.69
2023-01-18T05:11:36.372Z,6.71
2023-01-18T05:12:08.505Z,6.68
2023-01-18T05:12:40.493Z,6.68
2023-01-18T05:13:12.393Z,6.68
2023-01-18T05:13:45.407Z,6.69
2023-01-18T05:14:17.442Z,6.72
2023-01-18T05:14:49.309Z,6.63
2023-01-18T05:15:21.240Z,6.62
2023-01-18T05:15:53.082Z,6.59
2023-01-18T05:16:25.355Z,6.60
2023-01-18T05:16:57.265Z,6.59
2023-01-18T05:17:30.408Z,6.59
2023-01-18T05:18:02.596Z,6.63
2023-01-18T05:18:34.726Z,6.65
2023-01-18T05:19:06.586Z,6.64
2023-01-18T05:19:39.197Z,6.62
2023-01-18T05:20:12.033Z,6.54
2023-01-18T05:20:43.893Z,6.39
2023-01-18T05:21:16.091Z,6.29
2023-01-18T05:21:48.273Z,6.29
2023-01-18T05:22:21.677Z,6.25
2023-01-18T05:22:53.544Z,6.36
2023-01-18T05:23:25.720Z,6.43
2023-01-18T05:23:57.560Z,6.53
2023-01-18T05:24:30.236Z,6.56
2023-01-18T05:25:02.105Z,6.58
2023-01-18T05:25:33.969Z,6.63
2023-01-18T05:26:13.688Z,6.63
2023-01-18T05:26:45.543Z,6.65
2023-01-18T05:27:18.273Z,6.58
2023-01-18T05:27:50.815Z,6.47
2023-01-18T05:28:27.255Z,6.43
2023-01-18T05:28:59.311Z,6.43
2023-01-18T05:29:31.180Z,6.42
2023-01-18T05:30:05.294Z,6.31
2023-01-18T05:30:41.100Z,6.15
2023-01-18T05:31:14.778Z,6.22
2023-01-18T05:31:46.684Z,6.14
2023-01-18T05:32:19.078Z,6.01
2023-01-18T05:32:50.953Z,6.03
2023-01-18T05:33:23.348Z,6.19
2023-01-18T05:33:57.433Z,6.29
2023-01-18T05:34:29.640Z,6.35
2023-01-18T05:35:01.471Z,6.27
2023-01-18T05:35:33.390Z,6.25
2023-01-18T05:36:05.533Z,6.19
2023-01-18T05:36:37.405Z,6.12
2023-01-18T05:37:09.726Z,6.19
2023-01-18T05:37:41.962Z,6.28
2023-01-18T05:38:13.829Z,6.32
2023-01-18T05:38:46.869Z,6.16
2023-01-18T05:39:18.679Z,6.25
2023-01-18T05:39:50.601Z,6.27
2023-01-18T05:40:22.429Z,6.32
2023-01-18T05:40:55.130Z,6.24
2023-01-18T05:41:27.002Z,6.17
2023-01-18T05:42:00.230Z,6.26
2023-01-18T05:42:32.251Z,6.40
2023-01-18T05:43:04.375Z,6.46
2023-01-18T05:43:38.266Z,6.47
2023-01-18T05:44:11.938Z,6.26
2023-01-18T05:44:43.810Z,6.12
2023-01-18T05:45:15.844Z,6.29
2023-01-18T05:45:47.790Z,6.31
2023-01-18T05:46:19.714Z,6.42
2023-01-18T05:46:51.551Z,6.44
2023-01-18T05:47:23.482Z,6.44
2023-01-18T05:47:55.410Z,6.46
2023-01-18T05:48:27.624Z,6.39
2023-01-18T05:48:59.475Z,6.35
2023-01-18T05:49:31.332Z,6.33
2023-01-18T05:50:03.633Z,6.42
2023-01-18T05:50:35.824Z,6.43
2023-01-18T05:51:17.532Z,6.45
2023-01-18T05:51:49.952Z,6.42
2023-01-18T05:52:21.903Z,6.36
2023-01-18T05:52:53.747Z,6.42
2023-01-18T05:53:25.998Z,6.37
2023-01-18T05:53:58.145Z,6.37
2023-01-18T05:54:30.005Z,6.29
2023-01-18T05:55:01.911Z,6.26
2023-01-18T05:55:33.826Z,6.24
2023-01-18T05:56:07.266Z,6.31
2023-01-18T05:56:39.102Z,6.43
2023-01-18T05:57:11.014Z,6.43
2023-01-18T05:57:42.919Z,6.46
2023-01-18T05:58:14.784Z,6.39
2023-01-18T05:58:46.672Z,6.40
2023-01-18T05:59:19.388Z,6.33
2023-01-18T05:59:51.275Z,6.36
2023-01-18T06:00:24.712Z,6.44
2023-01-18T06:00:57.217Z,6.41
2023-01-18T06:01:29.242Z,6.38
2023-01-18T06:02:01.143Z,6.39
2023-01-18T06:02:33.036Z,6.37
2023-01-18T06:03:04.913Z,6.38
2023-01-18T06:03:37.137Z,6.39
2023-01-18T06:04:09.191Z,6.37
2023-01-18T06:04:41.141Z,6.38
2023-01-18T06:05:13.089Z,6.24
2023-01-18T06:05:45.089Z,6.25
2023-01-18T06:06:17.318Z,6.32
2023-01-18T06:06:49.206Z,6.36
2023-01-18T06:07:21.119Z,6.35
2023-01-18T06:07:53.257Z,6.34
2023-01-18T06:08:25.374Z,6.35
2023-01-18T06:08:57.339Z,6.38
2023-01-18T06:09:30.197Z,6.42
2023-01-18T06:10:02.027Z,6.36
2023-01-18T06:10:33.916Z,6.35
2023-01-18T06:11:06.710Z,6.42
2023-01-18T06:11:38.868Z,6.43
2023-01-18T06:12:10.745Z,6.31
2023-01-18T06:12:43.712Z,6.33
2023-01-18T06:13:15.549Z,6.36
2023-01-18T06:13:47.425Z,6.19
2023-01-18T06:14:19.297Z,6.26
2023-01-18T06:14:51.345Z,6.24
2023-01-18T06:15:23.241Z,6.26
2023-01-18T06:15:57.066Z,6.09
2023-01-18T06:16:28.990Z,6.08
2023-01-18T06:17:01.836Z,6.02
2023-01-18T06:17:34.222Z,6.09
2023-01-18T06:18:08.072Z,6.15
2023-01-18T06:18:41.401Z,6.21
2023-01-18T06:19:13.328Z,6.27
2023-01-18T06:19:45.181Z,6.22
2023-01-18T06:20:17.291Z,5.93
2023-01-18T06:20:49.414Z,5.92
2023-01-18T06:21:21.409Z,5.98
2023-01-18T06:21:54.439Z,5.99
2023-01-18T06:22:26.878Z,5.99
2023-01-18T06:22:59.263Z,6.00
2023-01-18T06:23:31.971Z,5.93
2023-01-18T06:24:03.877Z,5.90
2023-01-18T06:24:35.877Z,6.01
2023-01-18T06:25:10.803Z,6.06
2023-01-18T06:25:43.210Z,6.11
2023-01-18T06:26:15.078Z,6.06
2023-01-18T06:26:46.977Z,6.01
2023-01-18T06:27:18.869Z,5.98
2023-01-18T06:27:51.437Z,6.03
2023-01-18T06:28:23.662Z,6.02
2023-01-18T06:28:55.485Z,5.99
2023-01-18T06:29:27.369Z,5.90
2023-01-18T06:29:59.205Z,5.94
2023-01-18T06:30:31.963Z,6.08
2023-01-18T06:31:05.827Z,6.09
2023-01-18T06:31:37.820Z,6.14
2023-01-18T06:32:09.646Z,6.00
2023-01-18T06:32:41.628Z,5.80
2023-01-18T06:33:15.171Z,5.89
2023-01-18T06:33:47.065Z,5.91
2023-01-18T06:34:18.941Z,5.95
2023-01-18T06:34:50.874Z,5.99
2023-01-18T06:35:23.232Z,6.08
2023-01-18T06:35:55.154Z,6.18
2023-01-18T06:36:28.100Z,6.21
2023-01-18T06:37:00.191Z,6.20
2023-01-18T06:37:32.045Z,6.23
2023-01-18T06:38:05.066Z,6.22
2023-01-18T06:38:37.289Z,6.20
2023-01-18T06:39:09.114Z,6.21
2023-01-18T06:39:40.997Z,6.19
2023-01-18T06:40:13.389Z,6.15
2023-01-18T06:40:45.230Z,6.18
2023-01-18T06:41:17.153Z,6.14
2023-01-18T06:41:48.985Z,6.04
2023-01-18T06:42:20.852Z,6.06
2023-01-18T06:42:52.775Z,6.04
2023-01-18T06:43:24.724Z,6.16
2023-01-18T06:43:57.092Z,6.10
2023-01-18T06:44:29.123Z,6.18
2023-01-18T06:45:00.955Z,6.19
2023-01-18T06:45:33.528Z,6.16
2023-01-18T06:46:07.755Z,6.13
2023-01-18T06:46:39.692Z,6.18
2023-01-18T06:47:11.631Z,6.19
2023-01-18T06:47:43.975Z,6.15
2023-01-18T06:48:15.793Z,6.15
2023-01-18T06:48:48.028Z,6.05
2023-01-18T06:49:20.265Z,5.97
2023-01-18T06:49:52.110Z,6.04
2023-01-18T06:50:23.996Z,6.08
2023-01-18T06:50:57.983Z,6.13
2023-01-18T06:51:29.947Z,6.13
2023-01-18T06:52:02.166Z,6.11
2023-01-18T06:52:34.028Z,6.09
2023-01-18T06:53:05.840Z,6.16
2023-01-18T06:53:38.076Z,6.19
2023-01-18T06:54:10.277Z,6.13
2023-01-18T06:54:42.706Z,6.19
2023-01-18T06:55:15.584Z,6.21
2023-01-18T06:56:14.418Z,6.18
2023-01-18T06:56:46.904Z,6.09
2023-01-18T06:57:18.754Z,6.06
2023-01-18T06:57:50.652Z,6.06
2023-01-18T06:58:23.087Z,6.09
2023-01-18T06:58:57.353Z,6.06
2023-01-18T06:59:29.197Z,6.03
2023-01-18T07:00:05.925Z,6.05
2023-01-18T07:00:39.065Z,6.08
2023-01-18T07:01:11.262Z,6.04
2023-01-18T07:01:43.397Z,5.97
2023-01-18T07:02:16.663Z,6.04
2023-01-18T07:02:48.555Z,6.09
2023-01-18T07:03:20.395Z,6.15
2023-01-18T07:03:52.819Z,6.21
2023-01-18T07:04:25.025Z,6.26
2023-01-18T07:04:56.908Z,6.20
2023-01-18T07:05:29.090Z,6.23
2023-01-18T07:06:03.519Z,6.23
2023-01-18T07:06:36.706Z,6.12
2023-01-18T07:07:08.634Z,6.18
2023-01-18T07:07:40.506Z,6.23
2023-01-18T07:08:13.038Z,6.23
2023-01-18T07:08:44.947Z,6.21
2023-01-18T07:09:16.837Z,6.21
2023-01-18T07:09:48.728Z,6.25
2023-01-18T07:10:20.686Z,6.23
2023-01-18T07:10:53.765Z,6.13
2023-01-18T07:11:27.091Z,6.01
2023-01-18T07:11:58.935Z,6.01
2023-01-18T07:12:30.863Z,6.01
2023-01-18T07:13:02.753Z,6.09
2023-01-18T07:13:35.491Z,6.03
2023-01-18T07:14:07.331Z,6.07
2023-01-18T07:14:39.546Z,6.14
2023-01-18T07:15:21.651Z,6.15
2023-01-18T07:15:57.982Z,5.97
2023-01-18T07:16:32.551Z,5.95
2023-01-18T07:17:04.870Z,5.85
2023-01-18T07:17:36.723Z,5.92
2023-01-18T07:18:08.556Z,5.94
2023-01-18T07:18:44.202Z,5.92
2023-01-18T07:19:16.394Z,6.01
2023-01-18T07:19:48.295Z,6.16
2023-01-18T07:20:20.228Z,6.24
2023-01-18T07:20:59.413Z,6.24
2023-01-18T07:21:32.180Z,6.25
2023-01-18T07:22:04.083Z,6.31
2023-01-18T07:22:35.949Z,6.36
2023-01-18T07:23:07.787Z,6.37
2023-01-18T07:23:41.594Z,6.34
2023-01-18T07:24:13.845Z,6.33
2023-01-18T07:24:46.276Z,6.26
2023-01-18T07:25:20.646Z,6.19
2023-01-18T07:26:03.159Z,6.13
2023-01-18T07:26:35.340Z,6.15
2023-01-18T07:27:07.276Z,6.14
2023-01-18T07:27:40.686Z,6.03
2023-01-18T07:28:13.242Z,5.92
2023-01-18T07:28:46.299Z,6.06
2023-01-18T07:29:18.177Z,6.16
2023-01-18T07:29:50.058Z,6.08
2023-01-18T07:30:21.926Z,6.19
2023-01-18T07:30:53.861Z,6.18
2023-01-18T07:31:26.285Z,6.19
2023-01-18T07:31:58.537Z,6.20
2023-01-18T07:32:30.436Z,6.18
2023-01-18T07:33:02.349Z,6.12
2023-01-18T07:33:35.400Z,6.12
2023-01-18T07:34:07.289Z,6.10
2023-01-18T07:34:39.192Z,6.15
2023-01-18T07:35:11.096Z,6.22
2023-01-18T07:35:43.001Z,6.25
2023-01-18T07:36:15.037Z,6.27
2023-01-18T07:36:46.923Z,6.19
2023-01-18T07:37:19.237Z,5.98
2023-01-18T07:37:53.218Z,6.08
2023-01-18T07:38:26.046Z,6.02
2023-01-18T07:38:57.922Z,6.13
2023-01-18T07:39:29.820Z,6.14
2023-01-18T07:40:01.824Z,6.07
2023-01-18T07:40:34.141Z,6.05
2023-01-18T07:41:11.855Z,6.10
2023-01-18T07:41:43.747Z,6.15
2023-01-18T07:42:15.580Z,6.13
2023-01-18T07:42:49.048Z,5.96
2023-01-18T07:43:20.959Z,5.99
2023-01-18T07:43:53.973Z,6.04
2023-01-18T07:44:26.506Z,6.08
2023-01-18T07:44:58.517Z,6.19
2023-01-18T07:45:30.722Z,6.13
2023-01-18T07:46:04.109Z,6.65
2023-01-18T07:46:36.127Z,6.65
2023-01-18T07:47:08.048Z,6.60
2023-01-18T07:47:42.084Z,6.41
2023-01-18T07:48:14.311Z,6.11
2023-01-18T07:48:47.777Z,6.00
2023-01-18T07:49:19.708Z,5.93
2023-01-18T07:49:51.581Z,5.85